<?xml version="1.0" encoding="UTF-8" standalone="no" ?>
<gpx xmlns="http://www.topografix.com/GPX/1/1" xmlns:xsi="http://www.w3.org/2001/XMLSchema-instance" xsi:schemaLocation="http://www.topografix.com/GPX/1/1 http://www.topografix.com/GPX/1/1/gpx.xsd" version="1.1" creator="VisuGPX - https://www.visugpx.com">
  <metadata>
    <name>18 km Montreuil</name>
    <desc><![CDATA[Balade à pied ou vtt autour de Montreuil]]></desc>
  </metadata>
  <trk>
    <name><![CDATA[Montreuil]]></name>
    <trkseg>
      <trkpt lat="50.46572" lon="1.76032">
        <ele>-41.7</ele>
        <time>2010-06-30T09:10:24Z</time>
      </trkpt>
      <trkpt lat="50.46572" lon="1.76032">
        <ele>-41.7</ele>
        <time>2010-06-30T09:10:26Z</time>
      </trkpt>
      <trkpt lat="50.4657" lon="1.76037">
        <ele>-41.7</ele>
        <time>2010-06-30T09:10:34Z</time>
      </trkpt>
      <trkpt lat="50.46563" lon="1.76039">
        <ele>-41.7</ele>
        <time>2010-06-30T09:10:43Z</time>
      </trkpt>
      <trkpt lat="50.46566" lon="1.76019">
        <ele>-41.7</ele>
        <time>2010-06-30T09:10:50Z</time>
      </trkpt>
      <trkpt lat="50.46583" lon="1.76039">
        <ele>-34.5</ele>
        <time>2010-06-30T09:10:57Z</time>
      </trkpt>
      <trkpt lat="50.466" lon="1.76039">
        <ele>-27.3</ele>
        <time>2010-06-30T09:11:00Z</time>
      </trkpt>
      <trkpt lat="50.46606" lon="1.76039">
        <ele>-27.7</ele>
        <time>2010-06-30T09:11:01Z</time>
      </trkpt>
      <trkpt lat="50.46662" lon="1.7605">
        <ele>-8.5</ele>
        <time>2010-06-30T09:11:12Z</time>
      </trkpt>
      <trkpt lat="50.46673" lon="1.76073">
        <ele>-4.7</ele>
        <time>2010-06-30T09:11:15Z</time>
      </trkpt>
      <trkpt lat="50.46686" lon="1.76103">
        <ele>-2.7</ele>
        <time>2010-06-30T09:11:18Z</time>
      </trkpt>
      <trkpt lat="50.46696" lon="1.76129">
        <ele>-0.8</ele>
        <time>2010-06-30T09:11:21Z</time>
      </trkpt>
      <trkpt lat="50.46716" lon="1.76168">
        <ele>6.9</ele>
        <time>2010-06-30T09:11:27Z</time>
      </trkpt>
      <trkpt lat="50.4672" lon="1.76174">
        <ele>8.3</ele>
        <time>2010-06-30T09:11:30Z</time>
      </trkpt>
      <trkpt lat="50.46737" lon="1.76191">
        <ele>7.8</ele>
        <time>2010-06-30T09:11:43Z</time>
      </trkpt>
      <trkpt lat="50.46735" lon="1.76236">
        <ele>12.2</ele>
        <time>2010-06-30T09:11:50Z</time>
      </trkpt>
      <trkpt lat="50.46729" lon="1.76262">
        <ele>12.6</ele>
        <time>2010-06-30T09:11:52Z</time>
      </trkpt>
      <trkpt lat="50.46688" lon="1.76425">
        <ele>16</ele>
        <time>2010-06-30T09:12:04Z</time>
      </trkpt>
      <trkpt lat="50.46675" lon="1.7647">
        <ele>16</ele>
        <time>2010-06-30T09:12:09Z</time>
      </trkpt>
      <trkpt lat="50.4669" lon="1.76479">
        <ele>17</ele>
        <time>2010-06-30T09:12:13Z</time>
      </trkpt>
      <trkpt lat="50.46701" lon="1.76477">
        <ele>15.5</ele>
        <time>2010-06-30T09:12:15Z</time>
      </trkpt>
      <trkpt lat="50.4672" lon="1.76477">
        <ele>15</ele>
        <time>2010-06-30T09:12:18Z</time>
      </trkpt>
      <trkpt lat="50.46731" lon="1.76477">
        <ele>15</ele>
        <time>2010-06-30T09:12:21Z</time>
      </trkpt>
      <trkpt lat="50.46733" lon="1.76477">
        <ele>15</ele>
        <time>2010-06-30T09:12:22Z</time>
      </trkpt>
      <trkpt lat="50.46787" lon="1.76517">
        <ele>12.2</ele>
        <time>2010-06-30T09:12:36Z</time>
      </trkpt>
      <trkpt lat="50.46795" lon="1.76528">
        <ele>12.2</ele>
        <time>2010-06-30T09:12:39Z</time>
      </trkpt>
      <trkpt lat="50.46821" lon="1.76558">
        <ele>12.6</ele>
        <time>2010-06-30T09:12:45Z</time>
      </trkpt>
      <trkpt lat="50.46825" lon="1.76605">
        <ele>13.1</ele>
        <time>2010-06-30T09:12:50Z</time>
      </trkpt>
      <trkpt lat="50.46823" lon="1.76616">
        <ele>13.1</ele>
        <time>2010-06-30T09:12:51Z</time>
      </trkpt>
      <trkpt lat="50.46819" lon="1.76635">
        <ele>13.1</ele>
        <time>2010-06-30T09:12:53Z</time>
      </trkpt>
      <trkpt lat="50.46808" lon="1.76661">
        <ele>13.1</ele>
        <time>2010-06-30T09:12:56Z</time>
      </trkpt>
      <trkpt lat="50.46763" lon="1.76753">
        <ele>14.6</ele>
        <time>2010-06-30T09:13:09Z</time>
      </trkpt>
      <trkpt lat="50.46759" lon="1.76758">
        <ele>14.6</ele>
        <time>2010-06-30T09:13:11Z</time>
      </trkpt>
      <trkpt lat="50.46757" lon="1.76758">
        <ele>14.6</ele>
        <time>2010-06-30T09:13:14Z</time>
      </trkpt>
      <trkpt lat="50.4675" lon="1.7676">
        <ele>15</ele>
        <time>2010-06-30T09:13:17Z</time>
      </trkpt>
      <trkpt lat="50.46742" lon="1.76775">
        <ele>15.5</ele>
        <time>2010-06-30T09:13:20Z</time>
      </trkpt>
      <trkpt lat="50.46673" lon="1.76848">
        <ele>14.6</ele>
        <time>2010-06-30T09:13:35Z</time>
      </trkpt>
      <trkpt lat="50.46651" lon="1.76856">
        <ele>14.1</ele>
        <time>2010-06-30T09:13:39Z</time>
      </trkpt>
      <trkpt lat="50.46613" lon="1.76854">
        <ele>12.2</ele>
        <time>2010-06-30T09:13:48Z</time>
      </trkpt>
      <trkpt lat="50.46611" lon="1.76852">
        <ele>12.2</ele>
        <time>2010-06-30T09:13:51Z</time>
      </trkpt>
      <trkpt lat="50.46611" lon="1.7685">
        <ele>12.2</ele>
        <time>2010-06-30T09:13:54Z</time>
      </trkpt>
      <trkpt lat="50.46606" lon="1.76843">
        <ele>12.6</ele>
        <time>2010-06-30T09:14:00Z</time>
      </trkpt>
      <trkpt lat="50.46606" lon="1.76843">
        <ele>13.1</ele>
        <time>2010-06-30T09:14:01Z</time>
      </trkpt>
      <trkpt lat="50.46604" lon="1.76841">
        <ele>14.1</ele>
        <time>2010-06-30T09:14:03Z</time>
      </trkpt>
      <trkpt lat="50.46602" lon="1.76837">
        <ele>14.6</ele>
        <time>2010-06-30T09:14:07Z</time>
      </trkpt>
      <trkpt lat="50.46602" lon="1.76835">
        <ele>14.1</ele>
        <time>2010-06-30T09:14:08Z</time>
      </trkpt>
      <trkpt lat="50.46602" lon="1.76833">
        <ele>14.6</ele>
        <time>2010-06-30T09:14:11Z</time>
      </trkpt>
      <trkpt lat="50.46598" lon="1.76826">
        <ele>15</ele>
        <time>2010-06-30T09:14:17Z</time>
      </trkpt>
      <trkpt lat="50.46598" lon="1.76824">
        <ele>15</ele>
        <time>2010-06-30T09:14:18Z</time>
      </trkpt>
      <trkpt lat="50.46596" lon="1.7682">
        <ele>15</ele>
        <time>2010-06-30T09:14:24Z</time>
      </trkpt>
      <trkpt lat="50.46593" lon="1.76816">
        <ele>12.6</ele>
        <time>2010-06-30T09:14:32Z</time>
      </trkpt>
      <trkpt lat="50.46576" lon="1.76822">
        <ele>13.6</ele>
        <time>2010-06-30T09:14:39Z</time>
      </trkpt>
      <trkpt lat="50.46525" lon="1.76895">
        <ele>10.2</ele>
        <time>2010-06-30T09:14:51Z</time>
      </trkpt>
      <trkpt lat="50.46454" lon="1.76992">
        <ele>5.9</ele>
        <time>2010-06-30T09:15:05Z</time>
      </trkpt>
      <trkpt lat="50.46441" lon="1.77017">
        <ele>4.9</ele>
        <time>2010-06-30T09:15:08Z</time>
      </trkpt>
      <trkpt lat="50.46435" lon="1.77039">
        <ele>4.9</ele>
        <time>2010-06-30T09:15:10Z</time>
      </trkpt>
      <trkpt lat="50.46424" lon="1.77069">
        <ele>4.9</ele>
        <time>2010-06-30T09:15:13Z</time>
      </trkpt>
      <trkpt lat="50.46372" lon="1.77234">
        <ele>5.9</ele>
        <time>2010-06-30T09:15:29Z</time>
      </trkpt>
      <trkpt lat="50.46317" lon="1.77414">
        <ele>9.8</ele>
        <time>2010-06-30T09:15:47Z</time>
      </trkpt>
      <trkpt lat="50.46304" lon="1.77449">
        <ele>9.8</ele>
        <time>2010-06-30T09:15:51Z</time>
      </trkpt>
      <trkpt lat="50.46285" lon="1.77479">
        <ele>9.8</ele>
        <time>2010-06-30T09:16:00Z</time>
      </trkpt>
      <trkpt lat="50.4628" lon="1.77502">
        <ele>10.7</ele>
        <time>2010-06-30T09:16:04Z</time>
      </trkpt>
      <trkpt lat="50.46274" lon="1.77524">
        <ele>10.7</ele>
        <time>2010-06-30T09:16:08Z</time>
      </trkpt>
      <trkpt lat="50.46254" lon="1.77524">
        <ele>11.2</ele>
        <time>2010-06-30T09:16:14Z</time>
      </trkpt>
      <trkpt lat="50.46242" lon="1.77547">
        <ele>12.2</ele>
        <time>2010-06-30T09:16:20Z</time>
      </trkpt>
      <trkpt lat="50.46239" lon="1.77567">
        <ele>12.6</ele>
        <time>2010-06-30T09:16:24Z</time>
      </trkpt>
      <trkpt lat="50.46231" lon="1.77685">
        <ele>15.5</ele>
        <time>2010-06-30T09:16:48Z</time>
      </trkpt>
      <trkpt lat="50.46222" lon="1.77785">
        <ele>18.4</ele>
        <time>2010-06-30T09:17:08Z</time>
      </trkpt>
      <trkpt lat="50.46201" lon="1.77899">
        <ele>22.7</ele>
        <time>2010-06-30T09:17:31Z</time>
      </trkpt>
      <trkpt lat="50.46179" lon="1.77938">
        <ele>24.7</ele>
        <time>2010-06-30T09:17:43Z</time>
      </trkpt>
      <trkpt lat="50.46173" lon="1.77946">
        <ele>25.6</ele>
        <time>2010-06-30T09:17:46Z</time>
      </trkpt>
      <trkpt lat="50.46132" lon="1.77996">
        <ele>29.5</ele>
        <time>2010-06-30T09:18:03Z</time>
      </trkpt>
      <trkpt lat="50.46121" lon="1.78013">
        <ele>31.4</ele>
        <time>2010-06-30T09:18:08Z</time>
      </trkpt>
      <trkpt lat="50.46094" lon="1.78064">
        <ele>37.1</ele>
        <time>2010-06-30T09:18:25Z</time>
      </trkpt>
      <trkpt lat="50.46072" lon="1.78088">
        <ele>38.1</ele>
        <time>2010-06-30T09:18:34Z</time>
      </trkpt>
      <trkpt lat="50.4604" lon="1.78105">
        <ele>41.5</ele>
        <time>2010-06-30T09:18:46Z</time>
      </trkpt>
      <trkpt lat="50.4598" lon="1.78122">
        <ele>44.8</ele>
        <time>2010-06-30T09:19:07Z</time>
      </trkpt>
      <trkpt lat="50.45905" lon="1.78155">
        <ele>46.8</ele>
        <time>2010-06-30T09:19:27Z</time>
      </trkpt>
      <trkpt lat="50.45834" lon="1.782">
        <ele>46.8</ele>
        <time>2010-06-30T09:19:44Z</time>
      </trkpt>
      <trkpt lat="50.45757" lon="1.7826">
        <ele>47.2</ele>
        <time>2010-06-30T09:20:03Z</time>
      </trkpt>
      <trkpt lat="50.45667" lon="1.7829">
        <ele>47.2</ele>
        <time>2010-06-30T09:20:22Z</time>
      </trkpt>
      <trkpt lat="50.45566" lon="1.78305">
        <ele>48.2</ele>
        <time>2010-06-30T09:20:41Z</time>
      </trkpt>
      <trkpt lat="50.45495" lon="1.78309">
        <ele>48.2</ele>
        <time>2010-06-30T09:20:55Z</time>
      </trkpt>
      <trkpt lat="50.4542" lon="1.7835">
        <ele>49.2</ele>
        <time>2010-06-30T09:21:11Z</time>
      </trkpt>
      <trkpt lat="50.45368" lon="1.78382">
        <ele>49.2</ele>
        <time>2010-06-30T09:21:22Z</time>
      </trkpt>
      <trkpt lat="50.45327" lon="1.78395">
        <ele>49.2</ele>
        <time>2010-06-30T09:21:31Z</time>
      </trkpt>
      <trkpt lat="50.45317" lon="1.78418">
        <ele>49.2</ele>
        <time>2010-06-30T09:21:36Z</time>
      </trkpt>
      <trkpt lat="50.45295" lon="1.78547">
        <ele>47.2</ele>
        <time>2010-06-30T09:21:50Z</time>
      </trkpt>
      <trkpt lat="50.45287" lon="1.78691">
        <ele>43.4</ele>
        <time>2010-06-30T09:22:01Z</time>
      </trkpt>
      <trkpt lat="50.45291" lon="1.78807">
        <ele>46.3</ele>
        <time>2010-06-30T09:22:12Z</time>
      </trkpt>
      <trkpt lat="50.45304" lon="1.78888">
        <ele>48.7</ele>
        <time>2010-06-30T09:22:21Z</time>
      </trkpt>
      <trkpt lat="50.45336" lon="1.79019">
        <ele>50.1</ele>
        <time>2010-06-30T09:22:35Z</time>
      </trkpt>
      <trkpt lat="50.45381" lon="1.79152">
        <ele>49.6</ele>
        <time>2010-06-30T09:22:50Z</time>
      </trkpt>
      <trkpt lat="50.45426" lon="1.79281">
        <ele>47.2</ele>
        <time>2010-06-30T09:23:04Z</time>
      </trkpt>
      <trkpt lat="50.45441" lon="1.79442">
        <ele>44.4</ele>
        <time>2010-06-30T09:23:18Z</time>
      </trkpt>
      <trkpt lat="50.45443" lon="1.79481">
        <ele>42.4</ele>
        <time>2010-06-30T09:23:21Z</time>
      </trkpt>
      <trkpt lat="50.45465" lon="1.79539">
        <ele>38.6</ele>
        <time>2010-06-30T09:23:26Z</time>
      </trkpt>
      <trkpt lat="50.45482" lon="1.79571">
        <ele>37.6</ele>
        <time>2010-06-30T09:23:29Z</time>
      </trkpt>
      <trkpt lat="50.45486" lon="1.79614">
        <ele>31.9</ele>
        <time>2010-06-30T09:23:33Z</time>
      </trkpt>
      <trkpt lat="50.45478" lon="1.79639">
        <ele>28.5</ele>
        <time>2010-06-30T09:23:35Z</time>
      </trkpt>
      <trkpt lat="50.45471" lon="1.79652">
        <ele>26.6</ele>
        <time>2010-06-30T09:23:36Z</time>
      </trkpt>
      <trkpt lat="50.45467" lon="1.79697">
        <ele>24.2</ele>
        <time>2010-06-30T09:23:39Z</time>
      </trkpt>
      <trkpt lat="50.45465" lon="1.79727">
        <ele>22.2</ele>
        <time>2010-06-30T09:23:41Z</time>
      </trkpt>
      <trkpt lat="50.45454" lon="1.79775">
        <ele>18.9</ele>
        <time>2010-06-30T09:23:44Z</time>
      </trkpt>
      <trkpt lat="50.45435" lon="1.7983">
        <ele>15.5</ele>
        <time>2010-06-30T09:23:50Z</time>
      </trkpt>
      <trkpt lat="50.45456" lon="1.79856">
        <ele>14.1</ele>
        <time>2010-06-30T09:23:56Z</time>
      </trkpt>
      <trkpt lat="50.45467" lon="1.79865">
        <ele>13.6</ele>
        <time>2010-06-30T09:23:58Z</time>
      </trkpt>
      <trkpt lat="50.45538" lon="1.79931">
        <ele>11.2</ele>
        <time>2010-06-30T09:24:13Z</time>
      </trkpt>
      <trkpt lat="50.45542" lon="1.79938">
        <ele>11.2</ele>
        <time>2010-06-30T09:24:17Z</time>
      </trkpt>
      <trkpt lat="50.45542" lon="1.79942">
        <ele>11.2</ele>
        <time>2010-06-30T09:24:20Z</time>
      </trkpt>
      <trkpt lat="50.45544" lon="1.79944">
        <ele>11.2</ele>
        <time>2010-06-30T09:24:23Z</time>
      </trkpt>
      <trkpt lat="50.45544" lon="1.79944">
        <ele>11.2</ele>
        <time>2010-06-30T09:24:28Z</time>
      </trkpt>
      <trkpt lat="50.45555" lon="1.79936">
        <ele>9.8</ele>
        <time>2010-06-30T09:24:33Z</time>
      </trkpt>
      <trkpt lat="50.45561" lon="1.79931">
        <ele>10.2</ele>
        <time>2010-06-30T09:24:34Z</time>
      </trkpt>
      <trkpt lat="50.45634" lon="1.79852">
        <ele>10.2</ele>
        <time>2010-06-30T09:24:48Z</time>
      </trkpt>
      <trkpt lat="50.45673" lon="1.79794">
        <ele>10.7</ele>
        <time>2010-06-30T09:24:56Z</time>
      </trkpt>
      <trkpt lat="50.45709" lon="1.79815">
        <ele>9.8</ele>
        <time>2010-06-30T09:25:02Z</time>
      </trkpt>
      <trkpt lat="50.45716" lon="1.7982">
        <ele>10.2</ele>
        <time>2010-06-30T09:25:03Z</time>
      </trkpt>
      <trkpt lat="50.45808" lon="1.79893">
        <ele>9.3</ele>
        <time>2010-06-30T09:25:17Z</time>
      </trkpt>
      <trkpt lat="50.45873" lon="1.79942">
        <ele>8.8</ele>
        <time>2010-06-30T09:25:29Z</time>
      </trkpt>
      <trkpt lat="50.45903" lon="1.79966">
        <ele>10.7</ele>
        <time>2010-06-30T09:25:40Z</time>
      </trkpt>
      <trkpt lat="50.45905" lon="1.79966">
        <ele>11.7</ele>
        <time>2010-06-30T09:25:43Z</time>
      </trkpt>
      <trkpt lat="50.45909" lon="1.79968">
        <ele>11.7</ele>
        <time>2010-06-30T09:25:48Z</time>
      </trkpt>
      <trkpt lat="50.45911" lon="1.7997">
        <ele>11.2</ele>
        <time>2010-06-30T09:25:50Z</time>
      </trkpt>
      <trkpt lat="50.45915" lon="1.79972">
        <ele>10.7</ele>
        <time>2010-06-30T09:25:54Z</time>
      </trkpt>
      <trkpt lat="50.45918" lon="1.79974">
        <ele>9.8</ele>
        <time>2010-06-30T09:25:58Z</time>
      </trkpt>
      <trkpt lat="50.45918" lon="1.79974">
        <ele>9.8</ele>
        <time>2010-06-30T09:26:00Z</time>
      </trkpt>
      <trkpt lat="50.45918" lon="1.79972">
        <ele>9.3</ele>
        <time>2010-06-30T09:26:07Z</time>
      </trkpt>
      <trkpt lat="50.4592" lon="1.79963">
        <ele>8.8</ele>
        <time>2010-06-30T09:26:10Z</time>
      </trkpt>
      <trkpt lat="50.45922" lon="1.79938">
        <ele>7.8</ele>
        <time>2010-06-30T09:26:15Z</time>
      </trkpt>
      <trkpt lat="50.45945" lon="1.79805">
        <ele>7.8</ele>
        <time>2010-06-30T09:26:36Z</time>
      </trkpt>
      <trkpt lat="50.45965" lon="1.7968">
        <ele>9.3</ele>
        <time>2010-06-30T09:26:57Z</time>
      </trkpt>
      <trkpt lat="50.45988" lon="1.79549">
        <ele>8.8</ele>
        <time>2010-06-30T09:27:15Z</time>
      </trkpt>
      <trkpt lat="50.46027" lon="1.79363">
        <ele>8.8</ele>
        <time>2010-06-30T09:27:39Z</time>
      </trkpt>
      <trkpt lat="50.46038" lon="1.79296">
        <ele>7.8</ele>
        <time>2010-06-30T09:27:48Z</time>
      </trkpt>
      <trkpt lat="50.46055" lon="1.79144">
        <ele>6.4</ele>
        <time>2010-06-30T09:28:07Z</time>
      </trkpt>
      <trkpt lat="50.46115" lon="1.78996">
        <ele>8.3</ele>
        <time>2010-06-30T09:28:29Z</time>
      </trkpt>
      <trkpt lat="50.46169" lon="1.78833">
        <ele>8.3</ele>
        <time>2010-06-30T09:28:51Z</time>
      </trkpt>
      <trkpt lat="50.4622" lon="1.78599">
        <ele>8.3</ele>
        <time>2010-06-30T09:29:17Z</time>
      </trkpt>
      <trkpt lat="50.46293" lon="1.78324">
        <ele>7.8</ele>
        <time>2010-06-30T09:29:47Z</time>
      </trkpt>
      <trkpt lat="50.46355" lon="1.78174">
        <ele>8.3</ele>
        <time>2010-06-30T09:30:07Z</time>
      </trkpt>
      <trkpt lat="50.4642" lon="1.78077">
        <ele>8.8</ele>
        <time>2010-06-30T09:30:23Z</time>
      </trkpt>
      <trkpt lat="50.46448" lon="1.77949">
        <ele>8.8</ele>
        <time>2010-06-30T09:30:38Z</time>
      </trkpt>
      <trkpt lat="50.46428" lon="1.77777">
        <ele>7.8</ele>
        <time>2010-06-30T09:30:57Z</time>
      </trkpt>
      <trkpt lat="50.46471" lon="1.77601">
        <ele>7.3</ele>
        <time>2010-06-30T09:31:16Z</time>
      </trkpt>
      <trkpt lat="50.46473" lon="1.77588">
        <ele>7.3</ele>
        <time>2010-06-30T09:31:18Z</time>
      </trkpt>
      <trkpt lat="50.46456" lon="1.77577">
        <ele>7.3</ele>
        <time>2010-06-30T09:31:24Z</time>
      </trkpt>
      <trkpt lat="50.46433" lon="1.77575">
        <ele>7.3</ele>
        <time>2010-06-30T09:31:29Z</time>
      </trkpt>
      <trkpt lat="50.46415" lon="1.77556">
        <ele>7.3</ele>
        <time>2010-06-30T09:31:34Z</time>
      </trkpt>
      <trkpt lat="50.46422" lon="1.77539">
        <ele>8.3</ele>
        <time>2010-06-30T09:31:37Z</time>
      </trkpt>
      <trkpt lat="50.46426" lon="1.77534">
        <ele>8.3</ele>
        <time>2010-06-30T09:31:38Z</time>
      </trkpt>
      <trkpt lat="50.46441" lon="1.77532">
        <ele>8.3</ele>
        <time>2010-06-30T09:31:41Z</time>
      </trkpt>
      <trkpt lat="50.46467" lon="1.77539">
        <ele>8.8</ele>
        <time>2010-06-30T09:31:46Z</time>
      </trkpt>
      <trkpt lat="50.4649" lon="1.77509">
        <ele>8.3</ele>
        <time>2010-06-30T09:31:51Z</time>
      </trkpt>
      <trkpt lat="50.46544" lon="1.77339">
        <ele>7.8</ele>
        <time>2010-06-30T09:32:09Z</time>
      </trkpt>
      <trkpt lat="50.46591" lon="1.7718">
        <ele>7.3</ele>
        <time>2010-06-30T09:32:28Z</time>
      </trkpt>
      <trkpt lat="50.46602" lon="1.77152">
        <ele>8.3</ele>
        <time>2010-06-30T09:32:32Z</time>
      </trkpt>
      <trkpt lat="50.46619" lon="1.77144">
        <ele>8.8</ele>
        <time>2010-06-30T09:32:36Z</time>
      </trkpt>
      <trkpt lat="50.46624" lon="1.77142">
        <ele>8.8</ele>
        <time>2010-06-30T09:32:37Z</time>
      </trkpt>
      <trkpt lat="50.46735" lon="1.77112">
        <ele>11.2</ele>
        <time>2010-06-30T09:32:53Z</time>
      </trkpt>
      <trkpt lat="50.46857" lon="1.77079">
        <ele>11.2</ele>
        <time>2010-06-30T09:33:10Z</time>
      </trkpt>
      <trkpt lat="50.46945" lon="1.77052">
        <ele>12.2</ele>
        <time>2010-06-30T09:33:26Z</time>
      </trkpt>
      <trkpt lat="50.4695" lon="1.77049">
        <ele>12.2</ele>
        <time>2010-06-30T09:33:27Z</time>
      </trkpt>
      <trkpt lat="50.46956" lon="1.77024">
        <ele>11.2</ele>
        <time>2010-06-30T09:33:32Z</time>
      </trkpt>
      <trkpt lat="50.46958" lon="1.77009">
        <ele>10.7</ele>
        <time>2010-06-30T09:33:35Z</time>
      </trkpt>
      <trkpt lat="50.46958" lon="1.76996">
        <ele>10.7</ele>
        <time>2010-06-30T09:33:38Z</time>
      </trkpt>
      <trkpt lat="50.4696" lon="1.76983">
        <ele>9.8</ele>
        <time>2010-06-30T09:33:43Z</time>
      </trkpt>
      <trkpt lat="50.4696" lon="1.76981">
        <ele>9.8</ele>
        <time>2010-06-30T09:33:45Z</time>
      </trkpt>
      <trkpt lat="50.4696" lon="1.76976">
        <ele>9.3</ele>
        <time>2010-06-30T09:33:55Z</time>
      </trkpt>
      <trkpt lat="50.46963" lon="1.76953">
        <ele>8.8</ele>
        <time>2010-06-30T09:33:59Z</time>
      </trkpt>
      <trkpt lat="50.46978" lon="1.76893">
        <ele>8.8</ele>
        <time>2010-06-30T09:34:06Z</time>
      </trkpt>
      <trkpt lat="50.46967" lon="1.76843">
        <ele>8.8</ele>
        <time>2010-06-30T09:34:11Z</time>
      </trkpt>
      <trkpt lat="50.46948" lon="1.76801">
        <ele>8.8</ele>
        <time>2010-06-30T09:34:16Z</time>
      </trkpt>
      <trkpt lat="50.46945" lon="1.76749">
        <ele>7.8</ele>
        <time>2010-06-30T09:34:21Z</time>
      </trkpt>
      <trkpt lat="50.4695" lon="1.7659">
        <ele>8.3</ele>
        <time>2010-06-30T09:34:36Z</time>
      </trkpt>
      <trkpt lat="50.46943" lon="1.76425">
        <ele>6.4</ele>
        <time>2010-06-30T09:34:52Z</time>
      </trkpt>
      <trkpt lat="50.46937" lon="1.7629">
        <ele>4.9</ele>
        <time>2010-06-30T09:35:04Z</time>
      </trkpt>
      <trkpt lat="50.46922" lon="1.76022">
        <ele>5.9</ele>
        <time>2010-06-30T09:35:30Z</time>
      </trkpt>
      <trkpt lat="50.4696" lon="1.75841">
        <ele>5.9</ele>
        <time>2010-06-30T09:35:49Z</time>
      </trkpt>
      <trkpt lat="50.47031" lon="1.7559">
        <ele>7.8</ele>
        <time>2010-06-30T09:36:16Z</time>
      </trkpt>
      <trkpt lat="50.47057" lon="1.75532">
        <ele>8.3</ele>
        <time>2010-06-30T09:36:23Z</time>
      </trkpt>
      <trkpt lat="50.47085" lon="1.75504">
        <ele>8.8</ele>
        <time>2010-06-30T09:36:29Z</time>
      </trkpt>
      <trkpt lat="50.47096" lon="1.75464">
        <ele>7.8</ele>
        <time>2010-06-30T09:36:37Z</time>
      </trkpt>
      <trkpt lat="50.47121" lon="1.75425">
        <ele>7.3</ele>
        <time>2010-06-30T09:36:45Z</time>
      </trkpt>
      <trkpt lat="50.47119" lon="1.75417">
        <ele>7.3</ele>
        <time>2010-06-30T09:36:46Z</time>
      </trkpt>
      <trkpt lat="50.47106" lon="1.75301">
        <ele>7.3</ele>
        <time>2010-06-30T09:36:59Z</time>
      </trkpt>
      <trkpt lat="50.47111" lon="1.75273">
        <ele>7.3</ele>
        <time>2010-06-30T09:37:02Z</time>
      </trkpt>
      <trkpt lat="50.47113" lon="1.75264">
        <ele>6.9</ele>
        <time>2010-06-30T09:37:03Z</time>
      </trkpt>
      <trkpt lat="50.47128" lon="1.75221">
        <ele>7.3</ele>
        <time>2010-06-30T09:37:08Z</time>
      </trkpt>
      <trkpt lat="50.47111" lon="1.75178">
        <ele>6.9</ele>
        <time>2010-06-30T09:37:14Z</time>
      </trkpt>
      <trkpt lat="50.47091" lon="1.75146">
        <ele>6.9</ele>
        <time>2010-06-30T09:37:19Z</time>
      </trkpt>
      <trkpt lat="50.47091" lon="1.75118">
        <ele>6.9</ele>
        <time>2010-06-30T09:37:22Z</time>
      </trkpt>
      <trkpt lat="50.47096" lon="1.75101">
        <ele>6.9</ele>
        <time>2010-06-30T09:37:24Z</time>
      </trkpt>
      <trkpt lat="50.47115" lon="1.75073">
        <ele>7.8</ele>
        <time>2010-06-30T09:37:28Z</time>
      </trkpt>
      <trkpt lat="50.47224" lon="1.7494">
        <ele>9.3</ele>
        <time>2010-06-30T09:37:49Z</time>
      </trkpt>
      <trkpt lat="50.47216" lon="1.74919">
        <ele>8.3</ele>
        <time>2010-06-30T09:37:54Z</time>
      </trkpt>
      <trkpt lat="50.47117" lon="1.74839">
        <ele>8.8</ele>
        <time>2010-06-30T09:38:14Z</time>
      </trkpt>
      <trkpt lat="50.47068" lon="1.74799">
        <ele>8.8</ele>
        <time>2010-06-30T09:38:23Z</time>
      </trkpt>
      <trkpt lat="50.47046" lon="1.74758">
        <ele>7.8</ele>
        <time>2010-06-30T09:38:30Z</time>
      </trkpt>
      <trkpt lat="50.47018" lon="1.74766">
        <ele>7.3</ele>
        <time>2010-06-30T09:38:37Z</time>
      </trkpt>
      <trkpt lat="50.46963" lon="1.74824">
        <ele>7.8</ele>
        <time>2010-06-30T09:38:50Z</time>
      </trkpt>
      <trkpt lat="50.46945" lon="1.74835">
        <ele>7.8</ele>
        <time>2010-06-30T09:38:53Z</time>
      </trkpt>
      <trkpt lat="50.46939" lon="1.74837">
        <ele>8.3</ele>
        <time>2010-06-30T09:38:54Z</time>
      </trkpt>
      <trkpt lat="50.46907" lon="1.74844">
        <ele>7.8</ele>
        <time>2010-06-30T09:39:00Z</time>
      </trkpt>
      <trkpt lat="50.46887" lon="1.7485">
        <ele>8.3</ele>
        <time>2010-06-30T09:39:05Z</time>
      </trkpt>
      <trkpt lat="50.46881" lon="1.74854">
        <ele>8.3</ele>
        <time>2010-06-30T09:39:07Z</time>
      </trkpt>
      <trkpt lat="50.46872" lon="1.74882">
        <ele>8.3</ele>
        <time>2010-06-30T09:39:12Z</time>
      </trkpt>
      <trkpt lat="50.46872" lon="1.74889">
        <ele>8.3</ele>
        <time>2010-06-30T09:39:13Z</time>
      </trkpt>
      <trkpt lat="50.46868" lon="1.74914">
        <ele>8.3</ele>
        <time>2010-06-30T09:39:17Z</time>
      </trkpt>
      <trkpt lat="50.46853" lon="1.74914">
        <ele>9.3</ele>
        <time>2010-06-30T09:39:22Z</time>
      </trkpt>
      <trkpt lat="50.46842" lon="1.74908">
        <ele>10.2</ele>
        <time>2010-06-30T09:39:25Z</time>
      </trkpt>
      <trkpt lat="50.46832" lon="1.74897">
        <ele>11.2</ele>
        <time>2010-06-30T09:39:29Z</time>
      </trkpt>
      <trkpt lat="50.46787" lon="1.74831">
        <ele>13.1</ele>
        <time>2010-06-30T09:39:47Z</time>
      </trkpt>
      <trkpt lat="50.46782" lon="1.74816">
        <ele>13.6</ele>
        <time>2010-06-30T09:39:50Z</time>
      </trkpt>
      <trkpt lat="50.46774" lon="1.74762">
        <ele>12.6</ele>
        <time>2010-06-30T09:39:58Z</time>
      </trkpt>
      <trkpt lat="50.4675" lon="1.74683">
        <ele>12.6</ele>
        <time>2010-06-30T09:40:10Z</time>
      </trkpt>
      <trkpt lat="50.46729" lon="1.74616">
        <ele>13.6</ele>
        <time>2010-06-30T09:40:21Z</time>
      </trkpt>
      <trkpt lat="50.46722" lon="1.74597">
        <ele>14.1</ele>
        <time>2010-06-30T09:40:24Z</time>
      </trkpt>
      <trkpt lat="50.46686" lon="1.7449">
        <ele>16.5</ele>
        <time>2010-06-30T09:40:44Z</time>
      </trkpt>
      <trkpt lat="50.46649" lon="1.74376">
        <ele>19.4</ele>
        <time>2010-06-30T09:41:06Z</time>
      </trkpt>
      <trkpt lat="50.46606" lon="1.74273">
        <ele>22.7</ele>
        <time>2010-06-30T09:41:29Z</time>
      </trkpt>
      <trkpt lat="50.46596" lon="1.74223">
        <ele>23.7</ele>
        <time>2010-06-30T09:41:39Z</time>
      </trkpt>
      <trkpt lat="50.46593" lon="1.74183">
        <ele>25.1</ele>
        <time>2010-06-30T09:41:48Z</time>
      </trkpt>
      <trkpt lat="50.46593" lon="1.74163">
        <ele>26.6</ele>
        <time>2010-06-30T09:41:53Z</time>
      </trkpt>
      <trkpt lat="50.46591" lon="1.74144">
        <ele>27.1</ele>
        <time>2010-06-30T09:41:58Z</time>
      </trkpt>
      <trkpt lat="50.46591" lon="1.74133">
        <ele>27.5</ele>
        <time>2010-06-30T09:42:01Z</time>
      </trkpt>
      <trkpt lat="50.46591" lon="1.74103">
        <ele>29</ele>
        <time>2010-06-30T09:42:09Z</time>
      </trkpt>
      <trkpt lat="50.46591" lon="1.74097">
        <ele>29.9</ele>
        <time>2010-06-30T09:42:11Z</time>
      </trkpt>
      <trkpt lat="50.46591" lon="1.74086">
        <ele>30.4</ele>
        <time>2010-06-30T09:42:14Z</time>
      </trkpt>
      <trkpt lat="50.46591" lon="1.74069">
        <ele>31.9</ele>
        <time>2010-06-30T09:42:19Z</time>
      </trkpt>
      <trkpt lat="50.46587" lon="1.73981">
        <ele>37.1</ele>
        <time>2010-06-30T09:42:44Z</time>
      </trkpt>
      <trkpt lat="50.46587" lon="1.73972">
        <ele>37.6</ele>
        <time>2010-06-30T09:42:46Z</time>
      </trkpt>
      <trkpt lat="50.46585" lon="1.73921">
        <ele>39.6</ele>
        <time>2010-06-30T09:43:00Z</time>
      </trkpt>
      <trkpt lat="50.46578" lon="1.73844">
        <ele>41.5</ele>
        <time>2010-06-30T09:43:21Z</time>
      </trkpt>
      <trkpt lat="50.46578" lon="1.73827">
        <ele>42</ele>
        <time>2010-06-30T09:43:25Z</time>
      </trkpt>
      <trkpt lat="50.46576" lon="1.73816">
        <ele>42</ele>
        <time>2010-06-30T09:43:28Z</time>
      </trkpt>
      <trkpt lat="50.46576" lon="1.73807">
        <ele>42</ele>
        <time>2010-06-30T09:43:30Z</time>
      </trkpt>
      <trkpt lat="50.46574" lon="1.73751">
        <ele>42.9</ele>
        <time>2010-06-30T09:43:43Z</time>
      </trkpt>
      <trkpt lat="50.46576" lon="1.73736">
        <ele>43.4</ele>
        <time>2010-06-30T09:43:49Z</time>
      </trkpt>
      <trkpt lat="50.46574" lon="1.73736">
        <ele>44.4</ele>
        <time>2010-06-30T09:44:09Z</time>
      </trkpt>
      <trkpt lat="50.46574" lon="1.7373">
        <ele>43.9</ele>
        <time>2010-06-30T09:44:11Z</time>
      </trkpt>
      <trkpt lat="50.46574" lon="1.73719">
        <ele>43.9</ele>
        <time>2010-06-30T09:44:13Z</time>
      </trkpt>
      <trkpt lat="50.46572" lon="1.73702">
        <ele>43.9</ele>
        <time>2010-06-30T09:44:16Z</time>
      </trkpt>
      <trkpt lat="50.46585" lon="1.73603">
        <ele>43.4</ele>
        <time>2010-06-30T09:44:29Z</time>
      </trkpt>
      <trkpt lat="50.46587" lon="1.73565">
        <ele>42.9</ele>
        <time>2010-06-30T09:44:33Z</time>
      </trkpt>
      <trkpt lat="50.46576" lon="1.73518">
        <ele>41</ele>
        <time>2010-06-30T09:44:38Z</time>
      </trkpt>
      <trkpt lat="50.46516" lon="1.73391">
        <ele>38.1</ele>
        <time>2010-06-30T09:44:54Z</time>
      </trkpt>
      <trkpt lat="50.46454" lon="1.73277">
        <ele>38.6</ele>
        <time>2010-06-30T09:45:11Z</time>
      </trkpt>
      <trkpt lat="50.4639" lon="1.73189">
        <ele>41.5</ele>
        <time>2010-06-30T09:45:28Z</time>
      </trkpt>
      <trkpt lat="50.46368" lon="1.73146">
        <ele>42.9</ele>
        <time>2010-06-30T09:45:35Z</time>
      </trkpt>
      <trkpt lat="50.46375" lon="1.73099">
        <ele>44.4</ele>
        <time>2010-06-30T09:45:42Z</time>
      </trkpt>
      <trkpt lat="50.46415" lon="1.73009">
        <ele>44.8</ele>
        <time>2010-06-30T09:45:57Z</time>
      </trkpt>
      <trkpt lat="50.46456" lon="1.72872">
        <ele>42.9</ele>
        <time>2010-06-30T09:46:16Z</time>
      </trkpt>
      <trkpt lat="50.46475" lon="1.72741">
        <ele>36.2</ele>
        <time>2010-06-30T09:46:29Z</time>
      </trkpt>
      <trkpt lat="50.46499" lon="1.72664">
        <ele>33.8</ele>
        <time>2010-06-30T09:46:37Z</time>
      </trkpt>
      <trkpt lat="50.46499" lon="1.72651">
        <ele>33.8</ele>
        <time>2010-06-30T09:46:43Z</time>
      </trkpt>
      <trkpt lat="50.46499" lon="1.72651">
        <ele>33.8</ele>
        <time>2010-06-30T09:46:45Z</time>
      </trkpt>
      <trkpt lat="50.46497" lon="1.72642">
        <ele>34.3</ele>
        <time>2010-06-30T09:46:48Z</time>
      </trkpt>
      <trkpt lat="50.46495" lon="1.72638">
        <ele>34.7</ele>
        <time>2010-06-30T09:46:49Z</time>
      </trkpt>
      <trkpt lat="50.4648" lon="1.72629">
        <ele>35.2</ele>
        <time>2010-06-30T09:46:53Z</time>
      </trkpt>
      <trkpt lat="50.46426" lon="1.72588">
        <ele>38.1</ele>
        <time>2010-06-30T09:47:09Z</time>
      </trkpt>
      <trkpt lat="50.46368" lon="1.72509">
        <ele>41.5</ele>
        <time>2010-06-30T09:47:29Z</time>
      </trkpt>
      <trkpt lat="50.46304" lon="1.72421">
        <ele>42.9</ele>
        <time>2010-06-30T09:47:51Z</time>
      </trkpt>
      <trkpt lat="50.46237" lon="1.72355">
        <ele>43.9</ele>
        <time>2010-06-30T09:48:11Z</time>
      </trkpt>
      <trkpt lat="50.46239" lon="1.72335">
        <ele>43.9</ele>
        <time>2010-06-30T09:48:15Z</time>
      </trkpt>
      <trkpt lat="50.46276" lon="1.72234">
        <ele>44.4</ele>
        <time>2010-06-30T09:48:34Z</time>
      </trkpt>
      <trkpt lat="50.4633" lon="1.72134">
        <ele>46.3</ele>
        <time>2010-06-30T09:48:54Z</time>
      </trkpt>
      <trkpt lat="50.4633" lon="1.72121">
        <ele>45.8</ele>
        <time>2010-06-30T09:48:57Z</time>
      </trkpt>
      <trkpt lat="50.4633" lon="1.72101">
        <ele>46.3</ele>
        <time>2010-06-30T09:49:01Z</time>
      </trkpt>
      <trkpt lat="50.46327" lon="1.72091">
        <ele>44.8</ele>
        <time>2010-06-30T09:49:03Z</time>
      </trkpt>
      <trkpt lat="50.46293" lon="1.71994">
        <ele>46.8</ele>
        <time>2010-06-30T09:49:24Z</time>
      </trkpt>
      <trkpt lat="50.46252" lon="1.71945">
        <ele>48.2</ele>
        <time>2010-06-30T09:49:43Z</time>
      </trkpt>
      <trkpt lat="50.46205" lon="1.7188">
        <ele>52</ele>
        <time>2010-06-30T09:50:02Z</time>
      </trkpt>
      <trkpt lat="50.46207" lon="1.71863">
        <ele>54</ele>
        <time>2010-06-30T09:50:05Z</time>
      </trkpt>
      <trkpt lat="50.46214" lon="1.71846">
        <ele>54.5</ele>
        <time>2010-06-30T09:50:09Z</time>
      </trkpt>
      <trkpt lat="50.46231" lon="1.71786">
        <ele>55.9</ele>
        <time>2010-06-30T09:50:22Z</time>
      </trkpt>
      <trkpt lat="50.46244" lon="1.71722">
        <ele>58.3</ele>
        <time>2010-06-30T09:50:36Z</time>
      </trkpt>
      <trkpt lat="50.46248" lon="1.71672">
        <ele>57.8</ele>
        <time>2010-06-30T09:50:46Z</time>
      </trkpt>
      <trkpt lat="50.46248" lon="1.71661">
        <ele>56.9</ele>
        <time>2010-06-30T09:50:48Z</time>
      </trkpt>
      <trkpt lat="50.46218" lon="1.71561">
        <ele>55.9</ele>
        <time>2010-06-30T09:51:05Z</time>
      </trkpt>
      <trkpt lat="50.46203" lon="1.71524">
        <ele>56.9</ele>
        <time>2010-06-30T09:51:10Z</time>
      </trkpt>
      <trkpt lat="50.46194" lon="1.71488">
        <ele>57.8</ele>
        <time>2010-06-30T09:51:15Z</time>
      </trkpt>
      <trkpt lat="50.46175" lon="1.71485">
        <ele>57.8</ele>
        <time>2010-06-30T09:51:21Z</time>
      </trkpt>
      <trkpt lat="50.46166" lon="1.71492">
        <ele>58.3</ele>
        <time>2010-06-30T09:51:24Z</time>
      </trkpt>
      <trkpt lat="50.46151" lon="1.7146">
        <ele>59.7</ele>
        <time>2010-06-30T09:51:30Z</time>
      </trkpt>
      <trkpt lat="50.46149" lon="1.71453">
        <ele>60.2</ele>
        <time>2010-06-30T09:51:31Z</time>
      </trkpt>
      <trkpt lat="50.46121" lon="1.71385">
        <ele>62.1</ele>
        <time>2010-06-30T09:51:41Z</time>
      </trkpt>
      <trkpt lat="50.46094" lon="1.71286">
        <ele>63.6</ele>
        <time>2010-06-30T09:51:54Z</time>
      </trkpt>
      <trkpt lat="50.46085" lon="1.71219">
        <ele>63.6</ele>
        <time>2010-06-30T09:52:02Z</time>
      </trkpt>
      <trkpt lat="50.46104" lon="1.71194">
        <ele>64.1</ele>
        <time>2010-06-30T09:52:07Z</time>
      </trkpt>
      <trkpt lat="50.4613" lon="1.71164">
        <ele>63.6</ele>
        <time>2010-06-30T09:52:12Z</time>
      </trkpt>
      <trkpt lat="50.4619" lon="1.71024">
        <ele>62.1</ele>
        <time>2010-06-30T09:52:29Z</time>
      </trkpt>
      <trkpt lat="50.46242" lon="1.70921">
        <ele>61.2</ele>
        <time>2010-06-30T09:52:42Z</time>
      </trkpt>
      <trkpt lat="50.46257" lon="1.70857">
        <ele>61.2</ele>
        <time>2010-06-30T09:52:51Z</time>
      </trkpt>
      <trkpt lat="50.46235" lon="1.7084">
        <ele>60.2</ele>
        <time>2010-06-30T09:53:00Z</time>
      </trkpt>
      <trkpt lat="50.46231" lon="1.70852">
        <ele>60.7</ele>
        <time>2010-06-30T09:53:02Z</time>
      </trkpt>
      <trkpt lat="50.46227" lon="1.70872">
        <ele>61.2</ele>
        <time>2010-06-30T09:53:05Z</time>
      </trkpt>
      <trkpt lat="50.46182" lon="1.70983">
        <ele>62.6</ele>
        <time>2010-06-30T09:53:21Z</time>
      </trkpt>
      <trkpt lat="50.46126" lon="1.71104">
        <ele>61.7</ele>
        <time>2010-06-30T09:53:37Z</time>
      </trkpt>
      <trkpt lat="50.46087" lon="1.712">
        <ele>62.6</ele>
        <time>2010-06-30T09:53:49Z</time>
      </trkpt>
      <trkpt lat="50.46085" lon="1.71249">
        <ele>63.6</ele>
        <time>2010-06-30T09:53:54Z</time>
      </trkpt>
      <trkpt lat="50.46094" lon="1.71307">
        <ele>64.1</ele>
        <time>2010-06-30T09:54:00Z</time>
      </trkpt>
      <trkpt lat="50.46132" lon="1.71428">
        <ele>63.1</ele>
        <time>2010-06-30T09:54:13Z</time>
      </trkpt>
      <trkpt lat="50.46141" lon="1.71453">
        <ele>62.6</ele>
        <time>2010-06-30T09:54:16Z</time>
      </trkpt>
      <trkpt lat="50.4613" lon="1.71505">
        <ele>61.7</ele>
        <time>2010-06-30T09:54:23Z</time>
      </trkpt>
      <trkpt lat="50.46126" lon="1.71509">
        <ele>61.2</ele>
        <time>2010-06-30T09:54:24Z</time>
      </trkpt>
      <trkpt lat="50.46094" lon="1.71531">
        <ele>59.7</ele>
        <time>2010-06-30T09:54:30Z</time>
      </trkpt>
      <trkpt lat="50.46025" lon="1.71573">
        <ele>56.9</ele>
        <time>2010-06-30T09:54:43Z</time>
      </trkpt>
      <trkpt lat="50.46008" lon="1.71593">
        <ele>55.9</ele>
        <time>2010-06-30T09:54:47Z</time>
      </trkpt>
      <trkpt lat="50.45973" lon="1.71614">
        <ele>53</ele>
        <time>2010-06-30T09:54:52Z</time>
      </trkpt>
      <trkpt lat="50.45945" lon="1.71619">
        <ele>50.6</ele>
        <time>2010-06-30T09:54:56Z</time>
      </trkpt>
      <trkpt lat="50.45928" lon="1.71619">
        <ele>49.2</ele>
        <time>2010-06-30T09:55:01Z</time>
      </trkpt>
      <trkpt lat="50.45922" lon="1.71651">
        <ele>48.2</ele>
        <time>2010-06-30T09:55:09Z</time>
      </trkpt>
      <trkpt lat="50.45926" lon="1.71758">
        <ele>46.8</ele>
        <time>2010-06-30T09:55:20Z</time>
      </trkpt>
      <trkpt lat="50.4593" lon="1.71925">
        <ele>45.3</ele>
        <time>2010-06-30T09:55:35Z</time>
      </trkpt>
      <trkpt lat="50.45928" lon="1.7217">
        <ele>45.3</ele>
        <time>2010-06-30T09:55:55Z</time>
      </trkpt>
      <trkpt lat="50.45915" lon="1.72318">
        <ele>45.8</ele>
        <time>2010-06-30T09:56:09Z</time>
      </trkpt>
      <trkpt lat="50.45907" lon="1.72374">
        <ele>45.8</ele>
        <time>2010-06-30T09:56:20Z</time>
      </trkpt>
      <trkpt lat="50.45907" lon="1.72393">
        <ele>46.3</ele>
        <time>2010-06-30T09:56:23Z</time>
      </trkpt>
      <trkpt lat="50.45905" lon="1.72503">
        <ele>48.2</ele>
        <time>2010-06-30T09:56:37Z</time>
      </trkpt>
      <trkpt lat="50.45898" lon="1.72676">
        <ele>48.2</ele>
        <time>2010-06-30T09:56:55Z</time>
      </trkpt>
      <trkpt lat="50.45888" lon="1.7285">
        <ele>48.2</ele>
        <time>2010-06-30T09:57:12Z</time>
      </trkpt>
      <trkpt lat="50.45879" lon="1.73041">
        <ele>48.7</ele>
        <time>2010-06-30T09:57:30Z</time>
      </trkpt>
      <trkpt lat="50.45868" lon="1.73232">
        <ele>48.7</ele>
        <time>2010-06-30T09:57:47Z</time>
      </trkpt>
      <trkpt lat="50.45868" lon="1.73427">
        <ele>49.2</ele>
        <time>2010-06-30T09:58:05Z</time>
      </trkpt>
      <trkpt lat="50.45879" lon="1.73614">
        <ele>49.6</ele>
        <time>2010-06-30T09:58:23Z</time>
      </trkpt>
      <trkpt lat="50.45898" lon="1.73814">
        <ele>50.6</ele>
        <time>2010-06-30T09:58:43Z</time>
      </trkpt>
      <trkpt lat="50.45926" lon="1.73972">
        <ele>51.6</ele>
        <time>2010-06-30T09:58:59Z</time>
      </trkpt>
      <trkpt lat="50.45954" lon="1.74127">
        <ele>50.6</ele>
        <time>2010-06-30T09:59:14Z</time>
      </trkpt>
      <trkpt lat="50.4595" lon="1.74151">
        <ele>50.6</ele>
        <time>2010-06-30T09:59:17Z</time>
      </trkpt>
      <trkpt lat="50.45943" lon="1.74168">
        <ele>50.1</ele>
        <time>2010-06-30T09:59:19Z</time>
      </trkpt>
      <trkpt lat="50.4593" lon="1.74316">
        <ele>48.2</ele>
        <time>2010-06-30T09:59:33Z</time>
      </trkpt>
      <trkpt lat="50.45935" lon="1.74483">
        <ele>46.8</ele>
        <time>2010-06-30T09:59:49Z</time>
      </trkpt>
      <trkpt lat="50.45933" lon="1.74537">
        <ele>47.2</ele>
        <time>2010-06-30T09:59:54Z</time>
      </trkpt>
      <trkpt lat="50.45903" lon="1.74704">
        <ele>47.2</ele>
        <time>2010-06-30T10:00:11Z</time>
      </trkpt>
      <trkpt lat="50.4587" lon="1.74859">
        <ele>43.9</ele>
        <time>2010-06-30T10:00:28Z</time>
      </trkpt>
      <trkpt lat="50.45853" lon="1.74925">
        <ele>42.4</ele>
        <time>2010-06-30T10:00:38Z</time>
      </trkpt>
      <trkpt lat="50.45853" lon="1.74927">
        <ele>42.4</ele>
        <time>2010-06-30T10:00:39Z</time>
      </trkpt>
      <trkpt lat="50.45836" lon="1.74996">
        <ele>41</ele>
        <time>2010-06-30T10:00:55Z</time>
      </trkpt>
      <trkpt lat="50.45812" lon="1.75075">
        <ele>37.1</ele>
        <time>2010-06-30T10:01:10Z</time>
      </trkpt>
      <trkpt lat="50.45785" lon="1.75168">
        <ele>35.2</ele>
        <time>2010-06-30T10:01:27Z</time>
      </trkpt>
      <trkpt lat="50.45774" lon="1.752">
        <ele>34.3</ele>
        <time>2010-06-30T10:01:34Z</time>
      </trkpt>
      <trkpt lat="50.45772" lon="1.75204">
        <ele>34.3</ele>
        <time>2010-06-30T10:01:36Z</time>
      </trkpt>
      <trkpt lat="50.45767" lon="1.75215">
        <ele>31.9</ele>
        <time>2010-06-30T10:01:40Z</time>
      </trkpt>
      <trkpt lat="50.45746" lon="1.75279">
        <ele>28.5</ele>
        <time>2010-06-30T10:01:51Z</time>
      </trkpt>
      <trkpt lat="50.45731" lon="1.75363">
        <ele>23.2</ele>
        <time>2010-06-30T10:02:04Z</time>
      </trkpt>
      <trkpt lat="50.45718" lon="1.75444">
        <ele>20.8</ele>
        <time>2010-06-30T10:02:17Z</time>
      </trkpt>
      <trkpt lat="50.45718" lon="1.75466">
        <ele>21.3</ele>
        <time>2010-06-30T10:02:22Z</time>
      </trkpt>
      <trkpt lat="50.4572" lon="1.75483">
        <ele>21.8</ele>
        <time>2010-06-30T10:02:27Z</time>
      </trkpt>
      <trkpt lat="50.45722" lon="1.75492">
        <ele>21.8</ele>
        <time>2010-06-30T10:02:30Z</time>
      </trkpt>
      <trkpt lat="50.45727" lon="1.75524">
        <ele>23.2</ele>
        <time>2010-06-30T10:02:40Z</time>
      </trkpt>
      <trkpt lat="50.45727" lon="1.7553">
        <ele>23.7</ele>
        <time>2010-06-30T10:02:43Z</time>
      </trkpt>
      <trkpt lat="50.45729" lon="1.75539">
        <ele>24.2</ele>
        <time>2010-06-30T10:02:46Z</time>
      </trkpt>
      <trkpt lat="50.45733" lon="1.75573">
        <ele>25.6</ele>
        <time>2010-06-30T10:03:00Z</time>
      </trkpt>
      <trkpt lat="50.45735" lon="1.7558">
        <ele>26.6</ele>
        <time>2010-06-30T10:03:03Z</time>
      </trkpt>
      <trkpt lat="50.45737" lon="1.75586">
        <ele>27.1</ele>
        <time>2010-06-30T10:03:05Z</time>
      </trkpt>
      <trkpt lat="50.45737" lon="1.7559">
        <ele>27.5</ele>
        <time>2010-06-30T10:03:07Z</time>
      </trkpt>
      <trkpt lat="50.45737" lon="1.75595">
        <ele>28</ele>
        <time>2010-06-30T10:03:09Z</time>
      </trkpt>
      <trkpt lat="50.45742" lon="1.75614">
        <ele>29.5</ele>
        <time>2010-06-30T10:03:18Z</time>
      </trkpt>
      <trkpt lat="50.45742" lon="1.75623">
        <ele>29.9</ele>
        <time>2010-06-30T10:03:21Z</time>
      </trkpt>
      <trkpt lat="50.45744" lon="1.75629">
        <ele>29.9</ele>
        <time>2010-06-30T10:03:24Z</time>
      </trkpt>
      <trkpt lat="50.45746" lon="1.75638">
        <ele>30.4</ele>
        <time>2010-06-30T10:03:42Z</time>
      </trkpt>
      <trkpt lat="50.45746" lon="1.75635">
        <ele>31.9</ele>
        <time>2010-06-30T10:04:00Z</time>
      </trkpt>
      <trkpt lat="50.45746" lon="1.75642">
        <ele>33.8</ele>
        <time>2010-06-30T10:04:04Z</time>
      </trkpt>
      <trkpt lat="50.45752" lon="1.75676">
        <ele>40</ele>
        <time>2010-06-30T10:04:24Z</time>
      </trkpt>
      <trkpt lat="50.45754" lon="1.75689">
        <ele>39.1</ele>
        <time>2010-06-30T10:04:31Z</time>
      </trkpt>
      <trkpt lat="50.45754" lon="1.75691">
        <ele>39.1</ele>
        <time>2010-06-30T10:04:33Z</time>
      </trkpt>
      <trkpt lat="50.45754" lon="1.75698">
        <ele>40</ele>
        <time>2010-06-30T10:04:36Z</time>
      </trkpt>
      <trkpt lat="50.45757" lon="1.75702">
        <ele>41</ele>
        <time>2010-06-30T10:04:39Z</time>
      </trkpt>
      <trkpt lat="50.45757" lon="1.75711">
        <ele>42</ele>
        <time>2010-06-30T10:04:43Z</time>
      </trkpt>
      <trkpt lat="50.45757" lon="1.75717">
        <ele>42.9</ele>
        <time>2010-06-30T10:04:47Z</time>
      </trkpt>
      <trkpt lat="50.45757" lon="1.75717">
        <ele>42.9</ele>
        <time>2010-06-30T10:04:48Z</time>
      </trkpt>
      <trkpt lat="50.45757" lon="1.75719">
        <ele>44.4</ele>
        <time>2010-06-30T10:04:54Z</time>
      </trkpt>
      <trkpt lat="50.45754" lon="1.75728">
        <ele>44.4</ele>
        <time>2010-06-30T10:05:00Z</time>
      </trkpt>
      <trkpt lat="50.45754" lon="1.7573">
        <ele>44.4</ele>
        <time>2010-06-30T10:05:01Z</time>
      </trkpt>
      <trkpt lat="50.45759" lon="1.75734">
        <ele>44.4</ele>
        <time>2010-06-30T10:05:04Z</time>
      </trkpt>
      <trkpt lat="50.45759" lon="1.75738">
        <ele>44.4</ele>
        <time>2010-06-30T10:05:06Z</time>
      </trkpt>
      <trkpt lat="50.45765" lon="1.75749">
        <ele>44.4</ele>
        <time>2010-06-30T10:05:11Z</time>
      </trkpt>
      <trkpt lat="50.45772" lon="1.75758">
        <ele>45.3</ele>
        <time>2010-06-30T10:05:17Z</time>
      </trkpt>
      <trkpt lat="50.45778" lon="1.7576">
        <ele>45.8</ele>
        <time>2010-06-30T10:05:19Z</time>
      </trkpt>
      <trkpt lat="50.458" lon="1.75766">
        <ele>47.7</ele>
        <time>2010-06-30T10:05:26Z</time>
      </trkpt>
      <trkpt lat="50.45847" lon="1.75779">
        <ele>47.2</ele>
        <time>2010-06-30T10:05:41Z</time>
      </trkpt>
      <trkpt lat="50.45855" lon="1.75783">
        <ele>46.8</ele>
        <time>2010-06-30T10:05:44Z</time>
      </trkpt>
      <trkpt lat="50.45864" lon="1.75783">
        <ele>47.2</ele>
        <time>2010-06-30T10:05:49Z</time>
      </trkpt>
      <trkpt lat="50.45868" lon="1.75786">
        <ele>47.2</ele>
        <time>2010-06-30T10:05:53Z</time>
      </trkpt>
      <trkpt lat="50.45868" lon="1.75786">
        <ele>46.8</ele>
        <time>2010-06-30T10:05:57Z</time>
      </trkpt>
      <trkpt lat="50.45885" lon="1.75794">
        <ele>46.8</ele>
        <time>2010-06-30T10:06:03Z</time>
      </trkpt>
      <trkpt lat="50.4589" lon="1.75794">
        <ele>46.3</ele>
        <time>2010-06-30T10:06:04Z</time>
      </trkpt>
      <trkpt lat="50.45905" lon="1.75794">
        <ele>46.3</ele>
        <time>2010-06-30T10:06:08Z</time>
      </trkpt>
      <trkpt lat="50.45928" lon="1.75796">
        <ele>46.3</ele>
        <time>2010-06-30T10:06:15Z</time>
      </trkpt>
      <trkpt lat="50.45933" lon="1.75781">
        <ele>46.3</ele>
        <time>2010-06-30T10:06:19Z</time>
      </trkpt>
      <trkpt lat="50.45933" lon="1.75777">
        <ele>45.8</ele>
        <time>2010-06-30T10:06:20Z</time>
      </trkpt>
      <trkpt lat="50.45933" lon="1.75768">
        <ele>46.3</ele>
        <time>2010-06-30T10:06:22Z</time>
      </trkpt>
      <trkpt lat="50.45933" lon="1.75749">
        <ele>46.3</ele>
        <time>2010-06-30T10:06:26Z</time>
      </trkpt>
      <trkpt lat="50.45943" lon="1.75732">
        <ele>43.9</ele>
        <time>2010-06-30T10:06:32Z</time>
      </trkpt>
      <trkpt lat="50.45971" lon="1.75717">
        <ele>42</ele>
        <time>2010-06-30T10:06:41Z</time>
      </trkpt>
      <trkpt lat="50.45993" lon="1.75717">
        <ele>42</ele>
        <time>2010-06-30T10:06:44Z</time>
      </trkpt>
      <trkpt lat="50.46091" lon="1.75753">
        <ele>38.1</ele>
        <time>2010-06-30T10:06:59Z</time>
      </trkpt>
      <trkpt lat="50.46113" lon="1.75762">
        <ele>37.1</ele>
        <time>2010-06-30T10:07:02Z</time>
      </trkpt>
      <trkpt lat="50.46124" lon="1.75745">
        <ele>36.7</ele>
        <time>2010-06-30T10:07:05Z</time>
      </trkpt>
      <trkpt lat="50.46124" lon="1.75738">
        <ele>36.7</ele>
        <time>2010-06-30T10:07:06Z</time>
      </trkpt>
      <trkpt lat="50.46147" lon="1.75713">
        <ele>36.2</ele>
        <time>2010-06-30T10:07:10Z</time>
      </trkpt>
      <trkpt lat="50.46162" lon="1.75704">
        <ele>35.2</ele>
        <time>2010-06-30T10:07:12Z</time>
      </trkpt>
      <trkpt lat="50.46182" lon="1.75691">
        <ele>35.2</ele>
        <time>2010-06-30T10:07:15Z</time>
      </trkpt>
      <trkpt lat="50.46197" lon="1.75706">
        <ele>33.8</ele>
        <time>2010-06-30T10:07:19Z</time>
      </trkpt>
      <trkpt lat="50.46199" lon="1.75711">
        <ele>33.3</ele>
        <time>2010-06-30T10:07:20Z</time>
      </trkpt>
      <trkpt lat="50.46216" lon="1.75758">
        <ele>32.3</ele>
        <time>2010-06-30T10:07:30Z</time>
      </trkpt>
      <trkpt lat="50.46239" lon="1.75805">
        <ele>32.8</ele>
        <time>2010-06-30T10:07:44Z</time>
      </trkpt>
      <trkpt lat="50.4625" lon="1.7582">
        <ele>33.8</ele>
        <time>2010-06-30T10:07:49Z</time>
      </trkpt>
      <trkpt lat="50.46254" lon="1.75824">
        <ele>33.8</ele>
        <time>2010-06-30T10:07:51Z</time>
      </trkpt>
      <trkpt lat="50.46263" lon="1.75829">
        <ele>33.8</ele>
        <time>2010-06-30T10:07:54Z</time>
      </trkpt>
      <trkpt lat="50.46342" lon="1.75833">
        <ele>34.3</ele>
        <time>2010-06-30T10:08:15Z</time>
      </trkpt>
      <trkpt lat="50.46375" lon="1.75826">
        <ele>33.8</ele>
        <time>2010-06-30T10:08:22Z</time>
      </trkpt>
      <trkpt lat="50.46387" lon="1.75837">
        <ele>35.2</ele>
        <time>2010-06-30T10:08:26Z</time>
      </trkpt>
      <trkpt lat="50.4639" lon="1.75841">
        <ele>35.2</ele>
        <time>2010-06-30T10:08:27Z</time>
      </trkpt>
      <trkpt lat="50.46405" lon="1.75893">
        <ele>34.3</ele>
        <time>2010-06-30T10:08:36Z</time>
      </trkpt>
      <trkpt lat="50.46424" lon="1.7594">
        <ele>35.7</ele>
        <time>2010-06-30T10:08:46Z</time>
      </trkpt>
      <trkpt lat="50.46433" lon="1.7594">
        <ele>36.7</ele>
        <time>2010-06-30T10:08:49Z</time>
      </trkpt>
      <trkpt lat="50.46439" lon="1.75938">
        <ele>37.1</ele>
        <time>2010-06-30T10:08:51Z</time>
      </trkpt>
      <trkpt lat="50.4645" lon="1.75947">
        <ele>37.6</ele>
        <time>2010-06-30T10:08:58Z</time>
      </trkpt>
      <trkpt lat="50.46471" lon="1.75951">
        <ele>39.6</ele>
        <time>2010-06-30T10:09:10Z</time>
      </trkpt>
      <trkpt lat="50.46484" lon="1.75951">
        <ele>40.5</ele>
        <time>2010-06-30T10:09:18Z</time>
      </trkpt>
      <trkpt lat="50.4649" lon="1.75951">
        <ele>41</ele>
        <time>2010-06-30T10:09:22Z</time>
      </trkpt>
      <trkpt lat="50.46506" lon="1.75949">
        <ele>41.5</ele>
        <time>2010-06-30T10:09:31Z</time>
      </trkpt>
      <trkpt lat="50.46518" lon="1.75953">
        <ele>42</ele>
        <time>2010-06-30T10:09:38Z</time>
      </trkpt>
      <trkpt lat="50.46523" lon="1.75953">
        <ele>42</ele>
        <time>2010-06-30T10:09:41Z</time>
      </trkpt>
      <trkpt lat="50.46529" lon="1.75953">
        <ele>42.4</ele>
        <time>2010-06-30T10:09:45Z</time>
      </trkpt>
      <trkpt lat="50.46536" lon="1.75949">
        <ele>42.9</ele>
        <time>2010-06-30T10:09:50Z</time>
      </trkpt>
      <trkpt lat="50.46542" lon="1.75944">
        <ele>44.4</ele>
        <time>2010-06-30T10:09:54Z</time>
      </trkpt>
      <trkpt lat="50.46546" lon="1.7594">
        <ele>45.3</ele>
        <time>2010-06-30T10:09:57Z</time>
      </trkpt>
      <trkpt lat="50.46548" lon="1.75938">
        <ele>46.3</ele>
        <time>2010-06-30T10:10:03Z</time>
      </trkpt>
      <trkpt lat="50.46551" lon="1.75938">
        <ele>46.8</ele>
        <time>2010-06-30T10:10:08Z</time>
      </trkpt>
      <trkpt lat="50.46561" lon="1.75936">
        <ele>46.8</ele>
        <time>2010-06-30T10:10:15Z</time>
      </trkpt>
      <trkpt lat="50.46561" lon="1.75938">
        <ele>47.2</ele>
        <time>2010-06-30T10:10:18Z</time>
      </trkpt>
      <trkpt lat="50.46561" lon="1.7594">
        <ele>48.2</ele>
        <time>2010-06-30T10:10:23Z</time>
      </trkpt>
      <trkpt lat="50.46566" lon="1.75949">
        <ele>48.7</ele>
        <time>2010-06-30T10:10:27Z</time>
      </trkpt>
      <trkpt lat="50.46574" lon="1.75962">
        <ele>49.2</ele>
        <time>2010-06-30T10:10:32Z</time>
      </trkpt>
      <trkpt lat="50.46583" lon="1.75968">
        <ele>50.1</ele>
        <time>2010-06-30T10:10:36Z</time>
      </trkpt>
      <trkpt lat="50.46589" lon="1.75972">
        <ele>49.6</ele>
        <time>2010-06-30T10:10:38Z</time>
      </trkpt>
      <trkpt lat="50.466" lon="1.75981">
        <ele>49.6</ele>
        <time>2010-06-30T10:10:43Z</time>
      </trkpt>
      <trkpt lat="50.466" lon="1.75981">
        <ele>50.1</ele>
        <time>2010-06-30T10:10:46Z</time>
      </trkpt>
    </trkseg>
  </trk>
</gpx>